sensor_id;sensor_type;location;lat;lon;timestamp;P1;durP1;ratioP1;P2;durP2;ratioP2
23812;SDS011;12087;45.190;5.688;2022-10-14T00:04:38;10.07;;;6.13;;
23812;SDS011;12087;45.190;5.688;2022-10-14T00:10:00;9.45;;;5.85;;
23812;SDS011;12087;45.190;5.688;2022-10-14T00:15:23;12.07;;;6.00;;
23812;SDS011;12087;45.190;5.688;2022-10-14T02:04:15;8.52;;;6.70;;
23812;SDS011;12087;45.190;5.688;2022-10-14T02:09:40;12.65;;;6.60;;
23812;SDS011;12087;45.190;5.688;2022-10-14T02:15:14;12.73;;;6.95;;
23812;SDS011;12087;45.190;5.688;2022-10-14T03:11:37;11.93;;;6.07;;
23812;SDS011;12087;45.190;5.688;2022-10-14T03:16:59;9.43;;;5.47;;
23812;SDS011;12087;45.190;5.688;2022-10-14T03:22:21;10.25;;;6.15;;
23812;SDS011;12087;45.190;5.688;2022-10-14T03:27:45;6.22;;;5.03;;
23812;SDS011;12087;45.190;5.688;2022-10-14T03:33:07;12.25;;;6.72;;
23812;SDS011;12087;45.190;5.688;2022-10-14T03:38:30;15.57;;;6.15;;
23812;SDS011;12087;45.190;5.688;2022-10-14T03:43:54;9.43;;;5.97;;
23812;SDS011;12087;45.190;5.688;2022-10-14T03:49:16;9.00;;;5.60;;
23812;SDS011;12087;45.190;5.688;2022-10-14T03:54:38;16.45;;;6.47;;
23812;SDS011;12087;45.190;5.688;2022-10-14T04:00:02;11.25;;;5.80;;
23812;SDS011;12087;45.190;5.688;2022-10-14T04:05:25;10.63;;;6.57;;
23812;SDS011;12087;45.190;5.688;2022-10-14T04:10:52;10.30;;;6.07;;
23812;SDS011;12087;45.190;5.688;2022-10-14T04:16:17;10.15;;;6.30;;
23812;SDS011;12087;45.190;5.688;2022-10-14T04:21:39;12.50;;;6.00;;
23812;SDS011;12087;45.190;5.688;2022-10-14T04:27:01;11.23;;;6.30;;
23812;SDS011;12087;45.190;5.688;2022-10-14T04:32:25;11.48;;;5.88;;
23812;SDS011;12087;45.190;5.688;2022-10-14T04:37:47;9.13;;;5.97;;
23812;SDS011;12087;45.190;5.688;2022-10-14T04:43:10;8.15;;;5.53;;
23812;SDS011;12087;45.190;5.688;2022-10-14T04:48:33;8.63;;;6.72;;
23812;SDS011;12087;45.190;5.688;2022-10-14T04:53:55;11.48;;;5.97;;
23812;SDS011;12087;45.190;5.688;2022-10-14T04:59:18;12.52;;;5.93;;
23812;SDS011;12087;45.190;5.688;2022-10-14T05:04:41;12.68;;;5.65;;
23812;SDS011;12087;45.190;5.688;2022-10-14T05:10:04;13.48;;;6.25;;
23812;SDS011;12087;45.190;5.688;2022-10-14T05:15:28;9.57;;;5.70;;
23812;SDS011;12087;45.190;5.688;2022-10-14T05:20:52;10.07;;;6.28;;
23812;SDS011;12087;45.190;5.688;2022-10-14T05:26:14;11.68;;;6.18;;
23812;SDS011;12087;45.190;5.688;2022-10-14T05:31:37;15.27;;;6.38;;
23812;SDS011;12087;45.190;5.688;2022-10-14T05:37:00;10.38;;;6.60;;
23812;SDS011;12087;45.190;5.688;2022-10-14T05:42:23;13.82;;;7.90;;
23812;SDS011;12087;45.190;5.688;2022-10-14T05:47:45;10.43;;;6.18;;
23812;SDS011;12087;45.190;5.688;2022-10-14T05:53:09;14.93;;;7.20;;
23812;SDS011;12087;45.190;5.688;2022-10-14T05:58:32;13.50;;;6.45;;
23812;SDS011;12087;45.190;5.688;2022-10-14T06:03:54;12.65;;;6.70;;
23812;SDS011;12087;45.190;5.688;2022-10-14T06:09:18;12.23;;;7.53;;
23812;SDS011;12087;45.190;5.688;2022-10-14T06:14:41;20.38;;;8.43;;
23812;SDS011;12087;45.190;5.688;2022-10-14T06:20:03;10.95;;;7.03;;
23812;SDS011;12087;45.190;5.688;2022-10-14T06:25:28;11.90;;;6.60;;
23812;SDS011;12087;45.190;5.688;2022-10-14T06:30:51;13.73;;;8.45;;
23812;SDS011;12087;45.190;5.688;2022-10-14T06:36:13;17.63;;;7.38;;
23812;SDS011;12087;45.190;5.688;2022-10-14T06:41:37;10.77;;;7.28;;
23812;SDS011;12087;45.190;5.688;2022-10-14T06:46:59;10.88;;;7.60;;
23812;SDS011;12087;45.190;5.688;2022-10-14T06:52:21;12.57;;;7.22;;
23812;SDS011;12087;45.190;5.688;2022-10-14T06:57:45;15.90;;;7.32;;
23812;SDS011;12087;45.190;5.688;2022-10-14T07:03:07;17.02;;;8.45;;
23812;SDS011;12087;45.190;5.688;2022-10-14T07:08:29;12.95;;;8.18;;
23812;SDS011;12087;45.190;5.688;2022-10-14T07:13:53;13.80;;;8.65;;
23812;SDS011;12087;45.190;5.688;2022-10-14T07:19:16;15.73;;;8.02;;
23812;SDS011;12087;45.190;5.688;2022-10-14T07:24:38;16.27;;;8.70;;
23812;SDS011;12087;45.190;5.688;2022-10-14T07:30:02;18.42;;;7.20;;
23812;SDS011;12087;45.190;5.688;2022-10-14T07:35:26;14.00;;;8.48;;
23812;SDS011;12087;45.190;5.688;2022-10-14T07:40:55;13.77;;;7.60;;
23812;SDS011;12087;45.190;5.688;2022-10-14T07:46:20;18.88;;;8.70;;
23812;SDS011;12087;45.190;5.688;2022-10-14T07:51:51;19.30;;;10.30;;
23812;SDS011;12087;45.190;5.688;2022-10-14T07:57:21;16.92;;;9.68;;
23812;SDS011;12087;45.190;5.688;2022-10-14T08:02:49;19.85;;;11.00;;
23812;SDS011;12087;45.190;5.688;2022-10-14T08:08:28;23.77;;;12.75;;
23812;SDS011;12087;45.190;5.688;2022-10-14T08:13:59;18.63;;;12.30;;
23812;SDS011;12087;45.190;5.688;2022-10-14T08:19:25;20.05;;;12.50;;
23812;SDS011;12087;45.190;5.688;2022-10-14T08:24:58;22.88;;;13.35;;
23812;SDS011;12087;45.190;5.688;2022-10-14T08:30:25;16.75;;;12.98;;
23812;SDS011;12087;45.190;5.688;2022-10-14T08:35:50;21.10;;;13.73;;
23812;SDS011;12087;45.190;5.688;2022-10-14T08:41:21;17.50;;;11.77;;
23812;SDS011;12087;45.190;5.688;2022-10-14T08:46:49;15.75;;;10.70;;
23812;SDS011;12087;45.190;5.688;2022-10-14T08:52:16;23.73;;;11.75;;
23812;SDS011;12087;45.190;5.688;2022-10-14T08:57:41;23.42;;;11.98;;
23812;SDS011;12087;45.190;5.688;2022-10-14T09:03:13;18.77;;;11.77;;
23812;SDS011;12087;45.190;5.688;2022-10-14T09:08:41;17.95;;;10.48;;
23812;SDS011;12087;45.190;5.688;2022-10-14T09:14:07;20.55;;;9.25;;
23812;SDS011;12087;45.190;5.688;2022-10-14T09:19:36;15.02;;;9.90;;
23812;SDS011;12087;45.190;5.688;2022-10-14T09:25:08;15.73;;;8.67;;
23812;SDS011;12087;45.190;5.688;2022-10-14T09:30:35;18.23;;;8.98;;
23812;SDS011;12087;45.190;5.688;2022-10-14T09:36:03;14.70;;;9.07;;
23812;SDS011;12087;45.190;5.688;2022-10-14T09:47:42;17.17;;;9.43;;
23812;SDS011;12087;45.190;5.688;2022-10-14T09:53:13;17.88;;;9.93;;
23812;SDS011;12087;45.190;5.688;2022-10-14T09:58:44;17.92;;;8.48;;
23812;SDS011;12087;45.190;5.688;2022-10-14T10:04:22;16.80;;;9.85;;
23812;SDS011;12087;45.190;5.688;2022-10-14T10:09:50;16.63;;;10.05;;
23812;SDS011;12087;45.190;5.688;2022-10-14T10:15:18;15.40;;;9.00;;
23812;SDS011;12087;45.190;5.688;2022-10-14T10:20:41;16.35;;;9.45;;
23812;SDS011;12087;45.190;5.688;2022-10-14T10:26:21;14.90;;;9.10;;
23812;SDS011;12087;45.190;5.688;2022-10-14T10:32:00;16.63;;;8.82;;
23812;SDS011;12087;45.190;5.688;2022-10-14T10:37:30;14.45;;;8.25;;
23812;SDS011;12087;45.190;5.688;2022-10-14T10:42:58;11.55;;;7.35;;
23812;SDS011;12087;45.190;5.688;2022-10-14T10:48:34;18.40;;;7.57;;
23812;SDS011;12087;45.190;5.688;2022-10-14T10:54:05;11.88;;;6.32;;
23812;SDS011;12087;45.190;5.688;2022-10-14T11:05:05;13.23;;;6.60;;
23812;SDS011;12087;45.190;5.688;2022-10-14T11:16:14;9.43;;;4.82;;
23812;SDS011;12087;45.190;5.688;2022-10-14T11:21:48;11.77;;;6.10;;
23812;SDS011;12087;45.190;5.688;2022-10-14T11:27:15;11.35;;;6.45;;
23812;SDS011;12087;45.190;5.688;2022-10-14T11:32:46;12.35;;;5.95;;
23812;SDS011;12087;45.190;5.688;2022-10-14T11:38:29;15.00;;;6.55;;
23812;SDS011;12087;45.190;5.688;2022-10-14T11:44:01;8.05;;;4.60;;
23812;SDS011;12087;45.190;5.688;2022-10-14T11:49:32;10.73;;;5.30;;
23812;SDS011;12087;45.190;5.688;2022-10-14T11:55:05;14.38;;;5.63;;
23812;SDS011;12087;45.190;5.688;2022-10-14T12:00:33;9.00;;;5.97;;
23812;SDS011;12087;45.190;5.688;2022-10-14T12:05:58;12.13;;;5.80;;
23812;SDS011;12087;45.190;5.688;2022-10-14T12:11:27;10.82;;;4.68;;
23812;SDS011;12087;45.190;5.688;2022-10-14T12:16:53;7.20;;;3.95;;
23812;SDS011;12087;45.190;5.688;2022-10-14T12:22:19;10.82;;;4.30;;
23812;SDS011;12087;45.190;5.688;2022-10-14T12:27:45;17.63;;;5.95;;
23812;SDS011;12087;45.190;5.688;2022-10-14T12:33:09;13.18;;;5.78;;
23812;SDS011;12087;45.190;5.688;2022-10-14T12:38:32;12.40;;;5.63;;
23812;SDS011;12087;45.190;5.688;2022-10-14T12:44:00;10.15;;;4.20;;
23812;SDS011;12087;45.190;5.688;2022-10-14T12:49:26;8.88;;;3.33;;
23812;SDS011;12087;45.190;5.688;2022-10-14T12:54:50;9.98;;;3.50;;
23812;SDS011;12087;45.190;5.688;2022-10-14T13:26:08;3.75;;;1.90;;
23812;SDS011;12087;45.190;5.688;2022-10-14T13:31:40;6.45;;;2.05;;
23812;SDS011;12087;45.190;5.688;2022-10-14T13:37:16;6.68;;;1.77;;
23812;SDS011;12087;45.190;5.688;2022-10-14T13:42:51;6.70;;;2.03;;
23812;SDS011;12087;45.190;5.688;2022-10-14T13:48:17;3.72;;;1.58;;
23812;SDS011;12087;45.190;5.688;2022-10-14T13:53:48;14.05;;;1.85;;
23812;SDS011;12087;45.190;5.688;2022-10-14T13:59:22;5.35;;;2.45;;
23812;SDS011;12087;45.190;5.688;2022-10-14T14:04:46;5.82;;;2.20;;
23812;SDS011;12087;45.190;5.688;2022-10-14T14:10:15;11.77;;;3.08;;
23812;SDS011;12087;45.190;5.688;2022-10-14T14:15:41;11.05;;;3.42;;
23812;SDS011;12087;45.190;5.688;2022-10-14T14:21:10;10.82;;;3.00;;
23812;SDS011;12087;45.190;5.688;2022-10-14T14:26:34;5.57;;;2.40;;
23812;SDS011;12087;45.190;5.688;2022-10-14T14:31:59;8.38;;;2.85;;
23812;SDS011;12087;45.190;5.688;2022-10-14T14:37:25;4.18;;;1.77;;
23812;SDS011;12087;45.190;5.688;2022-10-14T14:42:50;4.47;;;1.45;;
23812;SDS011;12087;45.190;5.688;2022-10-14T14:48:15;1.80;;;1.50;;
23812;SDS011;12087;45.190;5.688;2022-10-14T14:53:38;5.68;;;1.98;;
23812;SDS011;12087;45.190;5.688;2022-10-14T14:59:01;5.80;;;1.38;;
23812;SDS011;12087;45.190;5.688;2022-10-14T15:04:31;5.70;;;1.40;;
23812;SDS011;12087;45.190;5.688;2022-10-14T15:09:56;7.88;;;1.55;;
23812;SDS011;12087;45.190;5.688;2022-10-14T15:15:31;2.17;;;1.27;;
23812;SDS011;12087;45.190;5.688;2022-10-14T15:33:49;2.47;;;1.60;;
23812;SDS011;12087;45.190;5.688;2022-10-14T15:39:15;52.22;;;4.90;;
23812;SDS011;12087;45.190;5.688;2022-10-14T15:44:44;9.15;;;2.00;;
23812;SDS011;12087;45.190;5.688;2022-10-14T15:50:14;4.55;;;1.67;;
23812;SDS011;12087;45.190;5.688;2022-10-14T15:55:56;10.98;;;2.97;;
23812;SDS011;12087;45.190;5.688;2022-10-14T16:01:22;10.48;;;4.40;;
23812;SDS011;12087;45.190;5.688;2022-10-14T16:06:46;12.35;;;4.82;;
23812;SDS011;12087;45.190;5.688;2022-10-14T16:12:09;10.07;;;5.72;;
23812;SDS011;12087;45.190;5.688;2022-10-14T16:17:33;10.60;;;5.45;;
23812;SDS011;12087;45.190;5.688;2022-10-14T16:22:57;14.95;;;7.25;;
23812;SDS011;12087;45.190;5.688;2022-10-14T16:28:20;14.10;;;7.82;;
23812;SDS011;12087;45.190;5.688;2022-10-14T16:33:42;13.65;;;6.22;;
23812;SDS011;12087;45.190;5.688;2022-10-14T16:39:07;11.25;;;5.65;;
23812;SDS011;12087;45.190;5.688;2022-10-14T16:44:29;9.00;;;4.47;;
23812;SDS011;12087;45.190;5.688;2022-10-14T16:49:52;11.23;;;5.28;;
23812;SDS011;12087;45.190;5.688;2022-10-14T16:55:17;11.02;;;4.93;;
23812;SDS011;12087;45.190;5.688;2022-10-14T17:00:40;9.52;;;4.65;;
23812;SDS011;12087;45.190;5.688;2022-10-14T17:06:02;9.70;;;4.95;;
23812;SDS011;12087;45.190;5.688;2022-10-14T17:11:26;10.10;;;4.68;;
23812;SDS011;12087;45.190;5.688;2022-10-14T17:16:48;8.52;;;4.25;;
23812;SDS011;12087;45.190;5.688;2022-10-14T17:22:11;15.63;;;5.15;;
23812;SDS011;12087;45.190;5.688;2022-10-14T17:27:35;6.32;;;3.90;;
23812;SDS011;12087;45.190;5.688;2022-10-14T17:32:57;9.63;;;4.63;;
23812;SDS011;12087;45.190;5.688;2022-10-14T17:38:19;14.25;;;4.70;;
23812;SDS011;12087;45.190;5.688;2022-10-14T17:43:43;7.30;;;4.50;;
23812;SDS011;12087;45.190;5.688;2022-10-14T17:49:08;9.18;;;4.50;;
23812;SDS011;12087;45.190;5.688;2022-10-14T17:54:31;10.23;;;4.22;;
23812;SDS011;12087;45.190;5.688;2022-10-14T17:59:55;9.60;;;4.07;;
23812;SDS011;12087;45.190;5.688;2022-10-14T18:05:17;11.13;;;4.47;;
23812;SDS011;12087;45.190;5.688;2022-10-14T18:10:39;7.57;;;3.90;;
23812;SDS011;12087;45.190;5.688;2022-10-14T18:16:04;7.55;;;4.13;;
23812;SDS011;12087;45.190;5.688;2022-10-14T18:21:34;8.57;;;4.82;;
23812;SDS011;12087;45.190;5.688;2022-10-14T18:27:13;7.50;;;4.80;;
23812;SDS011;12087;45.190;5.688;2022-10-14T18:32:42;7.60;;;4.50;;
23812;SDS011;12087;45.190;5.688;2022-10-14T18:38:04;10.13;;;5.30;;
23812;SDS011;12087;45.190;5.688;2022-10-14T18:43:27;5.97;;;3.88;;
23812;SDS011;12087;45.190;5.688;2022-10-14T18:48:52;11.63;;;4.68;;
23812;SDS011;12087;45.190;5.688;2022-10-14T18:54:16;10.20;;;4.65;;
23812;SDS011;12087;45.190;5.688;2022-10-14T18:59:40;8.73;;;4.97;;
23812;SDS011;12087;45.190;5.688;2022-10-14T19:05:04;11.68;;;5.50;;
23812;SDS011;12087;45.190;5.688;2022-10-14T19:10:27;11.93;;;5.72;;
23812;SDS011;12087;45.190;5.688;2022-10-14T19:15:57;9.27;;;4.60;;
23812;SDS011;12087;45.190;5.688;2022-10-14T19:21:22;7.43;;;4.45;;
23812;SDS011;12087;45.190;5.688;2022-10-14T19:26:49;9.95;;;4.57;;
23812;SDS011;12087;45.190;5.688;2022-10-14T19:32:13;10.95;;;4.78;;
23812;SDS011;12087;45.190;5.688;2022-10-14T19:37:36;7.05;;;4.70;;
23812;SDS011;12087;45.190;5.688;2022-10-14T19:42:59;7.75;;;4.32;;
23812;SDS011;12087;45.190;5.688;2022-10-14T19:54:31;9.98;;;4.80;;
23812;SDS011;12087;45.190;5.688;2022-10-14T19:59:54;10.77;;;4.40;;
23812;SDS011;12087;45.190;5.688;2022-10-14T20:05:16;8.73;;;4.90;;
23812;SDS011;12087;45.190;5.688;2022-10-14T20:10:40;9.45;;;4.80;;
23812;SDS011;12087;45.190;5.688;2022-10-14T20:16:02;10.40;;;5.63;;
23812;SDS011;12087;45.190;5.688;2022-10-14T20:21:25;7.18;;;5.10;;
23812;SDS011;12087;45.190;5.688;2022-10-14T20:26:50;8.07;;;4.72;;
23812;SDS011;12087;45.190;5.688;2022-10-14T20:32:12;11.57;;;5.15;;
23812;SDS011;12087;45.190;5.688;2022-10-14T20:37:35;8.20;;;5.03;;
23812;SDS011;12087;45.190;5.688;2022-10-14T20:42:58;9.05;;;5.35;;
23812;SDS011;12087;45.190;5.688;2022-10-14T20:48:21;13.00;;;6.03;;
23812;SDS011;12087;45.190;5.688;2022-10-14T20:53:43;11.23;;;5.47;;
23812;SDS011;12087;45.190;5.688;2022-10-14T20:59:07;9.30;;;5.40;;
23812;SDS011;12087;45.190;5.688;2022-10-14T21:04:31;8.60;;;4.70;;
23812;SDS011;12087;45.190;5.688;2022-10-14T21:09:54;8.43;;;4.60;;
23812;SDS011;12087;45.190;5.688;2022-10-14T21:15:17;13.10;;;5.20;;
23812;SDS011;12087;45.190;5.688;2022-10-14T21:20:40;6.63;;;4.72;;
23812;SDS011;12087;45.190;5.688;2022-10-14T21:26:02;5.72;;;4.38;;
23812;SDS011;12087;45.190;5.688;2022-10-14T21:31:26;9.07;;;5.05;;
23812;SDS011;12087;45.190;5.688;2022-10-14T21:36:48;9.43;;;4.80;;
23812;SDS011;12087;45.190;5.688;2022-10-14T21:42:10;8.00;;;5.00;;
23812;SDS011;12087;45.190;5.688;2022-10-14T21:47:34;6.50;;;4.15;;
23812;SDS011;12087;45.190;5.688;2022-10-14T21:52:57;6.55;;;4.03;;
23812;SDS011;12087;45.190;5.688;2022-10-14T21:58:19;7.75;;;4.30;;
23812;SDS011;12087;45.190;5.688;2022-10-14T22:03:43;6.50;;;4.13;;
23812;SDS011;12087;45.190;5.688;2022-10-14T22:09:06;10.00;;;3.65;;
23812;SDS011;12087;45.190;5.688;2022-10-14T22:14:28;8.30;;;4.30;;
23812;SDS011;12087;45.190;5.688;2022-10-14T22:19:51;7.05;;;4.28;;
23812;SDS011;12087;45.190;5.688;2022-10-14T22:25:14;10.13;;;4.45;;
23812;SDS011;12087;45.190;5.688;2022-10-14T22:30:36;11.95;;;5.22;;
23812;SDS011;12087;45.190;5.688;2022-10-14T22:36:07;11.23;;;5.80;;
23812;SDS011;12087;45.190;5.688;2022-10-14T22:41:30;15.70;;;5.68;;
23812;SDS011;12087;45.190;5.688;2022-10-14T22:46:53;13.43;;;4.75;;
23812;SDS011;12087;45.190;5.688;2022-10-14T22:52:17;10.02;;;4.72;;
23812;SDS011;12087;45.190;5.688;2022-10-14T22:57:39;10.02;;;5.82;;
23812;SDS011;12087;45.190;5.688;2022-10-14T23:03:01;9.45;;;5.20;;
23812;SDS011;12087;45.190;5.688;2022-10-14T23:08:25;7.95;;;5.35;;
23812;SDS011;12087;45.190;5.688;2022-10-14T23:13:47;10.02;;;4.93;;
23812;SDS011;12087;45.190;5.688;2022-10-14T23:19:10;13.18;;;6.55;;
23812;SDS011;12087;45.190;5.688;2022-10-14T23:24:34;8.45;;;5.90;;
23812;SDS011;12087;45.190;5.688;2022-10-14T23:29:56;12.52;;;5.85;;
23812;SDS011;12087;45.190;5.688;2022-10-14T23:35:18;10.82;;;5.25;;
23812;SDS011;12087;45.190;5.688;2022-10-14T23:40:43;11.98;;;5.28;;
23812;SDS011;12087;45.190;5.688;2022-10-14T23:46:05;8.38;;;4.93;;
23812;SDS011;12087;45.190;5.688;2022-10-14T23:51:27;9.80;;;5.47;;
23812;SDS011;12087;45.190;5.688;2022-10-14T23:56:51;10.18;;;6.00;;
